Terminal Aerodrome Forecast
Issued by NWS

Home | Current Version | Previous Version | Text Only | Print | Product List | Glossary On
Versions: 1 2 3 4 5 6 7 8 9 10 11 12 13 14 15 16 17 18 19
000
FTUS43 KILX 251700
TAFCMI
TAF
KCMI 251735Z 2518/2618 18008KT P6SM VCSH SCT080 OVC120
      TEMPO 2518/2521 5SM -SHRA BR BKN060
     FM252100 19010KT P6SM VCSH SCT070 BKN120
     FM260300 18008KT P6SM SCT050 BKN100
      TEMPO 2609/2613 5SM BR=

USA.gov is the U.S. government's official web portal to all federal, state and local government web resources and services.